KFCH/FCH METAR and TAF weather

Enter ICAO airport designator
Station Type Date Time Source
KFCH METAR 2019/06/19 01:55 UTC NOAA

KFCH 190155Z AUTO 30011KT 10SM CLR 35/16 A2980 RMK A01


Station Type Date Time Source
KFCH Decoded METAR 2019/06/19 01:55 UTC NOAA

Fresno-Chandler, CA, United States (KFCH) 36-44N 119-49W
Jun 18, 2019 - 09:55 PM EDT / 2019.06.19 0155 UTC
Wind: from the WNW (300 degrees) at 13 MPH (11 KT):0
Visibility: 10 mile(s):0
Sky conditions: clear
Temperature: 95 F (35 C)
Heat index: 95.2 F (35.1 C):1
Dew Point: 60 F (16 C)
Relative Humidity: 32%
Pressure (altimeter): 29.8 in. Hg (1009 hPa)
ob: KFCH 190155Z AUTO 30011KT 10SM CLR 35/16 A2980 RMK A01
cycle: 2

Station Type Date Time Source
KFCH TAF UTC NOAA

Error!

Example: see airport list